sensor_id;sensor_type;location;lat;lon;timestamp;temperature;humidity
65046;DHT22;54657;52.022;5.534;2023-10-19T00:00:49;11.80;95.40
65046;DHT22;54657;52.022;5.534;2023-10-19T00:03:17;11.80;95.00
65046;DHT22;54657;52.022;5.534;2023-10-19T00:05:44;11.80;95.20
65046;DHT22;54657;52.022;5.534;2023-10-19T00:08:13;11.90;95.20
65046;DHT22;54657;52.022;5.534;2023-10-19T00:10:40;11.90;95.20
65046;DHT22;54657;52.022;5.534;2023-10-19T00:13:09;11.90;95.50
65046;DHT22;54657;52.022;5.534;2023-10-19T00:15:38;11.90;95.50
65046;DHT22;54657;52.022;5.534;2023-10-19T00:18:12;12.00;95.50
65046;DHT22;54657;52.022;5.534;2023-10-19T00:20:41;12.00;95.40
65046;DHT22;54657;52.022;5.534;2023-10-19T00:23:06;12.00;95.60
65046;DHT22;54657;52.022;5.534;2023-10-19T00:25:32;12.00;95.50
65046;DHT22;54657;52.022;5.534;2023-10-19T00:28:00;12.10;95.70
65046;DHT22;54657;52.022;5.534;2023-10-19T00:30:29;12.10;95.70
65046;DHT22;54657;52.022;5.534;2023-10-19T00:33:03;12.10;95.80
65046;DHT22;54657;52.022;5.534;2023-10-19T00:35:35;12.10;95.90
65046;DHT22;54657;52.022;5.534;2023-10-19T00:38:01;12.20;96.30
65046;DHT22;54657;52.022;5.534;2023-10-19T00:40:55;12.20;96.10
65046;DHT22;54657;52.022;5.534;2023-10-19T00:43:29;12.20;96.20
65046;DHT22;54657;52.022;5.534;2023-10-19T00:46:00;12.20;96.00
65046;DHT22;54657;52.022;5.534;2023-10-19T00:48:27;12.30;96.00
65046;DHT22;54657;52.022;5.534;2023-10-19T00:50:54;12.30;95.90
65046;DHT22;54657;52.022;5.534;2023-10-19T00:53:33;12.30;96.20
65046;DHT22;54657;52.022;5.534;2023-10-19T00:55:59;12.30;96.30
65046;DHT22;54657;52.022;5.534;2023-10-19T00:58:26;12.40;96.20
65046;DHT22;54657;52.022;5.534;2023-10-19T01:00:55;12.40;96.10
65046;DHT22;54657;52.022;5.534;2023-10-19T01:03:21;12.40;96.30
65046;DHT22;54657;52.022;5.534;2023-10-19T01:05:47;12.40;96.60
65046;DHT22;54657;52.022;5.534;2023-10-19T01:08:14;12.40;97.20
65046;DHT22;54657;52.022;5.534;2023-10-19T01:10:51;12.50;96.80
65046;DHT22;54657;52.022;5.534;2023-10-19T01:13:18;12.50;96.70
65046;DHT22;54657;52.022;5.534;2023-10-19T01:15:52;12.60;96.70
65046;DHT22;54657;52.022;5.534;2023-10-19T01:18:18;12.60;96.80
65046;DHT22;54657;52.022;5.534;2023-10-19T01:20:43;12.60;96.70
65046;DHT22;54657;52.022;5.534;2023-10-19T01:23:20;12.70;96.80
65046;DHT22;54657;52.022;5.534;2023-10-19T01:25:59;12.70;96.80
65046;DHT22;54657;52.022;5.534;2023-10-19T01:28:30;12.80;98.80
65046;DHT22;54657;52.022;5.534;2023-10-19T01:33:44;12.80;96.90
65046;DHT22;54657;52.022;5.534;2023-10-19T01:36:10;12.90;96.90
65046;DHT22;54657;52.022;5.534;2023-10-19T01:38:37;12.90;96.80
65046;DHT22;54657;52.022;5.534;2023-10-19T01:41:04;13.00;96.90
65046;DHT22;54657;52.022;5.534;2023-10-19T01:43:33;13.00;96.90
65046;DHT22;54657;52.022;5.534;2023-10-19T01:46:01;13.00;97.20
65046;DHT22;54657;52.022;5.534;2023-10-19T01:48:30;13.10;97.60
65046;DHT22;54657;52.022;5.534;2023-10-19T01:51:03;13.10;97.10
65046;DHT22;54657;52.022;5.534;2023-10-19T01:53:33;13.20;97.50
65046;DHT22;54657;52.022;5.534;2023-10-19T01:56:00;13.20;97.10
65046;DHT22;54657;52.022;5.534;2023-10-19T01:58:26;13.30;97.00
65046;DHT22;54657;52.022;5.534;2023-10-19T02:00:54;13.40;97.30
65046;DHT22;54657;52.022;5.534;2023-10-19T02:03:28;13.40;97.30
65046;DHT22;54657;52.022;5.534;2023-10-19T02:05:58;13.40;97.50
65046;DHT22;54657;52.022;5.534;2023-10-19T02:08:25;13.50;98.30
65046;DHT22;54657;52.022;5.534;2023-10-19T02:10:52;13.40;97.60
65046;DHT22;54657;52.022;5.534;2023-10-19T02:13:19;13.50;97.70
65046;DHT22;54657;52.022;5.534;2023-10-19T02:15:45;13.60;97.50
65046;DHT22;54657;52.022;5.534;2023-10-19T02:18:10;13.60;97.60
65046;DHT22;54657;52.022;5.534;2023-10-19T02:20:36;13.60;97.50
65046;DHT22;54657;52.022;5.534;2023-10-19T02:23:07;13.70;97.50
65046;DHT22;54657;52.022;5.534;2023-10-19T02:25:33;13.70;97.70
65046;DHT22;54657;52.022;5.534;2023-10-19T02:28:05;13.70;97.80
65046;DHT22;54657;52.022;5.534;2023-10-19T02:30:34;13.80;98.00
65046;DHT22;54657;52.022;5.534;2023-10-19T02:33:00;13.80;97.80
65046;DHT22;54657;52.022;5.534;2023-10-19T02:35:27;13.80;98.10
65046;DHT22;54657;52.022;5.534;2023-10-19T02:37:53;13.90;97.70
65046;DHT22;54657;52.022;5.534;2023-10-19T02:40:19;13.90;97.80
65046;DHT22;54657;52.022;5.534;2023-10-19T02:42:46;13.90;98.10
65046;DHT22;54657;52.022;5.534;2023-10-19T02:45:16;14.00;98.30
65046;DHT22;54657;52.022;5.534;2023-10-19T02:47:43;14.00;98.20
65046;DHT22;54657;52.022;5.534;2023-10-19T02:50:09;14.10;98.30
65046;DHT22;54657;52.022;5.534;2023-10-19T02:52:38;14.10;98.30
65046;DHT22;54657;52.022;5.534;2023-10-19T02:55:04;14.10;98.40
65046;DHT22;54657;52.022;5.534;2023-10-19T02:57:30;14.20;98.20
65046;DHT22;54657;52.022;5.534;2023-10-19T02:59:56;14.20;98.20
65046;DHT22;54657;52.022;5.534;2023-10-19T03:02:23;14.30;98.20
65046;DHT22;54657;52.022;5.534;2023-10-19T03:04:53;14.30;98.20
65046;DHT22;54657;52.022;5.534;2023-10-19T03:07:18;14.30;98.20
65046;DHT22;54657;52.022;5.534;2023-10-19T03:09:44;14.30;98.30
65046;DHT22;54657;52.022;5.534;2023-10-19T03:12:20;14.40;98.40
65046;DHT22;54657;52.022;5.534;2023-10-19T03:14:50;14.40;98.50
65046;DHT22;54657;52.022;5.534;2023-10-19T03:17:16;14.40;98.30
65046;DHT22;54657;52.022;5.534;2023-10-19T03:19:41;14.40;98.40
65046;DHT22;54657;52.022;5.534;2023-10-19T03:22:07;14.50;98.50
65046;DHT22;54657;52.022;5.534;2023-10-19T03:24:34;14.50;98.50
65046;DHT22;54657;52.022;5.534;2023-10-19T03:27:07;14.50;98.30
65046;DHT22;54657;52.022;5.534;2023-10-19T03:29:44;14.50;98.50
65046;DHT22;54657;52.022;5.534;2023-10-19T03:32:19;14.60;98.50
65046;DHT22;54657;52.022;5.534;2023-10-19T03:34:47;14.60;98.60
65046;DHT22;54657;52.022;5.534;2023-10-19T03:37:14;14.60;98.50
65046;DHT22;54657;52.022;5.534;2023-10-19T03:39:41;14.70;98.40
65046;DHT22;54657;52.022;5.534;2023-10-19T03:42:07;14.70;98.60
65046;DHT22;54657;52.022;5.534;2023-10-19T03:44:33;14.70;98.70
65046;DHT22;54657;52.022;5.534;2023-10-19T03:47:17;14.70;98.50
65046;DHT22;54657;52.022;5.534;2023-10-19T03:49:46;14.70;98.50
65046;DHT22;54657;52.022;5.534;2023-10-19T03:52:13;14.80;98.60
65046;DHT22;54657;52.022;5.534;2023-10-19T03:54:39;14.80;98.60
65046;DHT22;54657;52.022;5.534;2023-10-19T03:57:06;14.80;98.50
65046;DHT22;54657;52.022;5.534;2023-10-19T03:59:40;14.80;98.70
65046;DHT22;54657;52.022;5.534;2023-10-19T04:02:10;14.80;98.80
65046;DHT22;54657;52.022;5.534;2023-10-19T04:04:42;14.80;98.90
65046;DHT22;54657;52.022;5.534;2023-10-19T04:07:18;14.90;99.10
65046;DHT22;54657;52.022;5.534;2023-10-19T04:09:43;14.90;99.00
65046;DHT22;54657;52.022;5.534;2023-10-19T04:12:27;14.90;98.90
65046;DHT22;54657;52.022;5.534;2023-10-19T04:14:57;14.90;99.10
65046;DHT22;54657;52.022;5.534;2023-10-19T04:17:23;14.90;98.80
65046;DHT22;54657;52.022;5.534;2023-10-19T04:19:50;15.00;98.90
65046;DHT22;54657;52.022;5.534;2023-10-19T04:22:17;15.00;98.80
65046;DHT22;54657;52.022;5.534;2023-10-19T04:24:50;15.00;98.90
65046;DHT22;54657;52.022;5.534;2023-10-19T04:27:16;15.00;98.80
65046;DHT22;54657;52.022;5.534;2023-10-19T04:29:41;15.10;98.90
65046;DHT22;54657;52.022;5.534;2023-10-19T04:32:09;15.10;98.90
65046;DHT22;54657;52.022;5.534;2023-10-19T04:34:40;15.10;98.90
65046;DHT22;54657;52.022;5.534;2023-10-19T04:37:06;15.10;98.90
65046;DHT22;54657;52.022;5.534;2023-10-19T04:39:32;15.10;98.80
65046;DHT22;54657;52.022;5.534;2023-10-19T04:41:59;15.10;98.90
65046;DHT22;54657;52.022;5.534;2023-10-19T04:44:25;15.10;98.70
65046;DHT22;54657;52.022;5.534;2023-10-19T04:46:51;15.10;98.80
65046;DHT22;54657;52.022;5.534;2023-10-19T04:49:16;15.10;98.90
65046;DHT22;54657;52.022;5.534;2023-10-19T04:51:42;15.20;98.90
65046;DHT22;54657;52.022;5.534;2023-10-19T04:54:09;15.10;98.90
65046;DHT22;54657;52.022;5.534;2023-10-19T04:56:35;15.00;99.00
65046;DHT22;54657;52.022;5.534;2023-10-19T04:59:04;15.10;99.00
65046;DHT22;54657;52.022;5.534;2023-10-19T05:01:30;15.10;98.90
65046;DHT22;54657;52.022;5.534;2023-10-19T05:03:59;15.10;98.90
65046;DHT22;54657;52.022;5.534;2023-10-19T05:06:24;15.10;98.90
65046;DHT22;54657;52.022;5.534;2023-10-19T05:08:50;15.10;98.90
65046;DHT22;54657;52.022;5.534;2023-10-19T05:11:17;15.10;99.10
65046;DHT22;54657;52.022;5.534;2023-10-19T05:13:43;15.10;99.10
65046;DHT22;54657;52.022;5.534;2023-10-19T05:16:08;15.10;99.10
65046;DHT22;54657;52.022;5.534;2023-10-19T05:18:34;15.10;99.10
65046;DHT22;54657;52.022;5.534;2023-10-19T05:20:59;15.10;99.10
65046;DHT22;54657;52.022;5.534;2023-10-19T05:23:27;15.10;99.00
65046;DHT22;54657;52.022;5.534;2023-10-19T05:26:03;15.20;99.10
65046;DHT22;54657;52.022;5.534;2023-10-19T05:28:30;15.20;99.40
65046;DHT22;54657;52.022;5.534;2023-10-19T05:30:56;15.10;99.00
65046;DHT22;54657;52.022;5.534;2023-10-19T05:33:21;15.10;99.10
65046;DHT22;54657;52.022;5.534;2023-10-19T05:35:49;15.10;99.10
65046;DHT22;54657;52.022;5.534;2023-10-19T05:38:16;15.20;99.00
65046;DHT22;54657;52.022;5.534;2023-10-19T05:40:42;15.20;99.10
65046;DHT22;54657;52.022;5.534;2023-10-19T05:43:10;15.20;99.10
65046;DHT22;54657;52.022;5.534;2023-10-19T05:45:37;15.20;99.10
65046;DHT22;54657;52.022;5.534;2023-10-19T05:48:03;15.20;99.10
65046;DHT22;54657;52.022;5.534;2023-10-19T05:50:29;15.20;99.00
65046;DHT22;54657;52.022;5.534;2023-10-19T05:52:55;15.20;99.10
65046;DHT22;54657;52.022;5.534;2023-10-19T05:55:21;15.20;99.00
65046;DHT22;54657;52.022;5.534;2023-10-19T05:57:49;15.20;99.00
65046;DHT22;54657;52.022;5.534;2023-10-19T06:00:15;15.20;99.20
65046;DHT22;54657;52.022;5.534;2023-10-19T06:02:46;15.20;99.10
65046;DHT22;54657;52.022;5.534;2023-10-19T06:05:16;15.20;99.20
65046;DHT22;54657;52.022;5.534;2023-10-19T06:07:46;15.30;99.30
65046;DHT22;54657;52.022;5.534;2023-10-19T06:10:14;15.30;99.20
65046;DHT22;54657;52.022;5.534;2023-10-19T06:12:44;15.20;99.40
65046;DHT22;54657;52.022;5.534;2023-10-19T06:15:11;15.20;99.20
65046;DHT22;54657;52.022;5.534;2023-10-19T06:17:41;15.20;99.30
65046;DHT22;54657;52.022;5.534;2023-10-19T06:20:08;15.20;99.30
65046;DHT22;54657;52.022;5.534;2023-10-19T06:22:37;15.30;99.30
65046;DHT22;54657;52.022;5.534;2023-10-19T06:25:03;15.30;99.30
65046;DHT22;54657;52.022;5.534;2023-10-19T06:27:31;15.20;99.30
65046;DHT22;54657;52.022;5.534;2023-10-19T06:29:57;15.30;99.20
65046;DHT22;54657;52.022;5.534;2023-10-19T06:32:23;15.30;99.30
65046;DHT22;54657;52.022;5.534;2023-10-19T06:34:48;15.30;99.30
65046;DHT22;54657;52.022;5.534;2023-10-19T06:37:14;15.30;99.30
65046;DHT22;54657;52.022;5.534;2023-10-19T06:39:40;15.30;99.40
65046;DHT22;54657;52.022;5.534;2023-10-19T06:42:08;15.30;99.30
65046;DHT22;54657;52.022;5.534;2023-10-19T06:44:40;15.30;99.30
65046;DHT22;54657;52.022;5.534;2023-10-19T06:47:05;15.30;99.30
65046;DHT22;54657;52.022;5.534;2023-10-19T06:49:32;15.30;99.30
65046;DHT22;54657;52.022;5.534;2023-10-19T06:51:58;15.30;99.30
65046;DHT22;54657;52.022;5.534;2023-10-19T06:54:24;15.40;99.40
65046;DHT22;54657;52.022;5.534;2023-10-19T06:56:49;15.40;99.30
65046;DHT22;54657;52.022;5.534;2023-10-19T06:59:15;15.40;99.30
65046;DHT22;54657;52.022;5.534;2023-10-19T07:01:40;15.40;99.30
65046;DHT22;54657;52.022;5.534;2023-10-19T07:04:06;15.40;99.30
65046;DHT22;54657;52.022;5.534;2023-10-19T07:06:32;15.40;99.30
65046;DHT22;54657;52.022;5.534;2023-10-19T07:08:57;15.40;99.30
65046;DHT22;54657;52.022;5.534;2023-10-19T07:11:23;15.40;99.30
65046;DHT22;54657;52.022;5.534;2023-10-19T07:13:49;15.40;99.30
65046;DHT22;54657;52.022;5.534;2023-10-19T07:16:15;15.40;99.30
65046;DHT22;54657;52.022;5.534;2023-10-19T07:18:41;15.50;99.30
65046;DHT22;54657;52.022;5.534;2023-10-19T07:21:07;15.50;99.30
65046;DHT22;54657;52.022;5.534;2023-10-19T07:23:35;15.40;99.50
65046;DHT22;54657;52.022;5.534;2023-10-19T07:26:03;15.40;99.50
65046;DHT22;54657;52.022;5.534;2023-10-19T07:28:29;15.40;99.50
65046;DHT22;54657;52.022;5.534;2023-10-19T07:30:57;15.40;99.70
65046;DHT22;54657;52.022;5.534;2023-10-19T07:33:22;15.40;99.60
65046;DHT22;54657;52.022;5.534;2023-10-19T07:35:49;15.40;99.60
65046;DHT22;54657;52.022;5.534;2023-10-19T07:38:22;15.40;99.70
65046;DHT22;54657;52.022;5.534;2023-10-19T07:40:48;15.40;99.70
65046;DHT22;54657;52.022;5.534;2023-10-19T07:43:14;15.40;99.70
65046;DHT22;54657;52.022;5.534;2023-10-19T07:45:39;15.50;99.60
65046;DHT22;54657;52.022;5.534;2023-10-19T07:48:05;15.50;99.70
65046;DHT22;54657;52.022;5.534;2023-10-19T07:50:32;15.50;99.70
65046;DHT22;54657;52.022;5.534;2023-10-19T07:52:58;15.50;99.80
65046;DHT22;54657;52.022;5.534;2023-10-19T07:55:24;15.50;99.70
65046;DHT22;54657;52.022;5.534;2023-10-19T07:57:50;15.50;99.80
65046;DHT22;54657;52.022;5.534;2023-10-19T08:00:16;15.50;99.70
65046;DHT22;54657;52.022;5.534;2023-10-19T08:02:43;15.60;99.70
65046;DHT22;54657;52.022;5.534;2023-10-19T08:05:12;15.60;99.70
65046;DHT22;54657;52.022;5.534;2023-10-19T08:07:41;15.60;99.70
65046;DHT22;54657;52.022;5.534;2023-10-19T08:10:11;15.60;99.80
65046;DHT22;54657;52.022;5.534;2023-10-19T08:12:38;15.60;99.70
65046;DHT22;54657;52.022;5.534;2023-10-19T08:15:07;15.60;99.70
65046;DHT22;54657;52.022;5.534;2023-10-19T08:17:33;15.60;99.60
65046;DHT22;54657;52.022;5.534;2023-10-19T08:19:59;15.60;99.80
65046;DHT22;54657;52.022;5.534;2023-10-19T08:22:28;15.70;99.80
65046;DHT22;54657;52.022;5.534;2023-10-19T08:24:54;15.70;99.70
65046;DHT22;54657;52.022;5.534;2023-10-19T08:27:20;15.80;99.70
65046;DHT22;54657;52.022;5.534;2023-10-19T08:29:46;15.80;99.70
65046;DHT22;54657;52.022;5.534;2023-10-19T08:32:12;15.90;99.60
65046;DHT22;54657;52.022;5.534;2023-10-19T08:34:39;15.80;99.50
65046;DHT22;54657;52.022;5.534;2023-10-19T08:37:07;15.80;99.60
65046;DHT22;54657;52.022;5.534;2023-10-19T08:39:32;15.90;99.60
65046;DHT22;54657;52.022;5.534;2023-10-19T08:42:05;16.00;99.60
65046;DHT22;54657;52.022;5.534;2023-10-19T08:44:33;16.00;99.50
65046;DHT22;54657;52.022;5.534;2023-10-19T08:47:01;16.00;99.60
65046;DHT22;54657;52.022;5.534;2023-10-19T08:49:26;16.00;99.60
65046;DHT22;54657;52.022;5.534;2023-10-19T08:51:53;16.00;99.60
65046;DHT22;54657;52.022;5.534;2023-10-19T08:54:19;16.00;99.80
65046;DHT22;54657;52.022;5.534;2023-10-19T08:56:45;16.00;99.70
65046;DHT22;54657;52.022;5.534;2023-10-19T08:59:13;16.10;99.60
65046;DHT22;54657;52.022;5.534;2023-10-19T09:01:41;16.10;99.70
65046;DHT22;54657;52.022;5.534;2023-10-19T09:04:12;16.10;99.70
65046;DHT22;54657;52.022;5.534;2023-10-19T09:06:42;16.20;99.70
65046;DHT22;54657;52.022;5.534;2023-10-19T09:09:11;16.20;99.70
65046;DHT22;54657;52.022;5.534;2023-10-19T09:11:47;16.30;99.70
65046;DHT22;54657;52.022;5.534;2023-10-19T09:14:16;16.30;99.60
65046;DHT22;54657;52.022;5.534;2023-10-19T09:16:56;16.40;99.60
65046;DHT22;54657;52.022;5.534;2023-10-19T09:19:43;16.40;99.60
65046;DHT22;54657;52.022;5.534;2023-10-19T09:22:10;16.50;99.90
65046;DHT22;54657;52.022;5.534;2023-10-19T09:24:45;16.60;99.60
65046;DHT22;54657;52.022;5.534;2023-10-19T09:27:11;16.70;99.60
65046;DHT22;54657;52.022;5.534;2023-10-19T09:29:38;16.70;99.40
65046;DHT22;54657;52.022;5.534;2023-10-19T09:32:05;16.80;99.50
65046;DHT22;54657;52.022;5.534;2023-10-19T09:34:32;16.80;99.40
65046;DHT22;54657;52.022;5.534;2023-10-19T09:37:00;16.80;99.50
65046;DHT22;54657;52.022;5.534;2023-10-19T09:39:27;16.90;99.50
65046;DHT22;54657;52.022;5.534;2023-10-19T09:42:00;16.90;99.50
65046;DHT22;54657;52.022;5.534;2023-10-19T09:44:30;17.00;99.40
65046;DHT22;54657;52.022;5.534;2023-10-19T09:47:02;17.00;99.40
65046;DHT22;54657;52.022;5.534;2023-10-19T09:49:29;17.00;99.40
65046;DHT22;54657;52.022;5.534;2023-10-19T09:51:55;17.10;99.40
65046;DHT22;54657;52.022;5.534;2023-10-19T09:54:27;17.10;99.30
65046;DHT22;54657;52.022;5.534;2023-10-19T09:57:03;17.30;99.40
65046;DHT22;54657;52.022;5.534;2023-10-19T09:59:38;17.40;99.20
65046;DHT22;54657;52.022;5.534;2023-10-19T10:02:16;17.50;99.20
65046;DHT22;54657;52.022;5.534;2023-10-19T10:04:43;17.60;99.20
65046;DHT22;54657;52.022;5.534;2023-10-19T10:07:11;17.70;99.10
65046;DHT22;54657;52.022;5.534;2023-10-19T10:09:39;17.70;99.00
65046;DHT22;54657;52.022;5.534;2023-10-19T10:12:20;17.80;99.00
65046;DHT22;54657;52.022;5.534;2023-10-19T10:15:01;17.90;98.90
65046;DHT22;54657;52.022;5.534;2023-10-19T10:17:29;17.90;98.90
65046;DHT22;54657;52.022;5.534;2023-10-19T10:25:45;18.00;99.00
65046;DHT22;54657;52.022;5.534;2023-10-19T10:28:14;18.00;98.90
65046;DHT22;54657;52.022;5.534;2023-10-19T10:31:12;18.00;98.90
65046;DHT22;54657;52.022;5.534;2023-10-19T10:33:59;18.10;99.10
65046;DHT22;54657;52.022;5.534;2023-10-19T10:36:24;18.10;99.00
65046;DHT22;54657;52.022;5.534;2023-10-19T10:38:52;18.10;98.80
65046;DHT22;54657;52.022;5.534;2023-10-19T10:43:51;18.10;98.80
65046;DHT22;54657;52.022;5.534;2023-10-19T10:46:19;18.00;98.80
65046;DHT22;54657;52.022;5.534;2023-10-19T10:48:45;18.00;98.80
65046;DHT22;54657;52.022;5.534;2023-10-19T10:51:27;18.00;98.90
65046;DHT22;54657;52.022;5.534;2023-10-19T10:53:55;18.10;98.70
65046;DHT22;54657;52.022;5.534;2023-10-19T10:56:23;18.10;98.80
65046;DHT22;54657;52.022;5.534;2023-10-19T10:58:49;18.10;98.80
65046;DHT22;54657;52.022;5.534;2023-10-19T11:01:15;18.10;98.80
65046;DHT22;54657;52.022;5.534;2023-10-19T11:04:08;18.10;98.80
65046;DHT22;54657;52.022;5.534;2023-10-19T11:06:49;18.20;98.80
65046;DHT22;54657;52.022;5.534;2023-10-19T11:09:14;18.20;98.80
65046;DHT22;54657;52.022;5.534;2023-10-19T11:11:49;18.30;98.80
65046;DHT22;54657;52.022;5.534;2023-10-19T11:14:17;18.30;98.70
65046;DHT22;54657;52.022;5.534;2023-10-19T11:16:43;18.40;98.70
65046;DHT22;54657;52.022;5.534;2023-10-19T11:19:09;18.50;98.70
65046;DHT22;54657;52.022;5.534;2023-10-19T11:21:35;18.60;98.50
65046;DHT22;54657;52.022;5.534;2023-10-19T11:24:01;18.60;98.40
65046;DHT22;54657;52.022;5.534;2023-10-19T11:26:27;18.60;98.40
65046;DHT22;54657;52.022;5.534;2023-10-19T11:29:00;18.70;98.40
65046;DHT22;54657;52.022;5.534;2023-10-19T11:31:27;18.70;98.20
65046;DHT22;54657;52.022;5.534;2023-10-19T11:33:54;18.70;98.30
65046;DHT22;54657;52.022;5.534;2023-10-19T11:36:24;18.80;98.00
65046;DHT22;54657;52.022;5.534;2023-10-19T11:38:51;18.80;97.90
65046;DHT22;54657;52.022;5.534;2023-10-19T11:41:20;18.90;97.80
65046;DHT22;54657;52.022;5.534;2023-10-19T11:43:47;18.80;97.80
65046;DHT22;54657;52.022;5.534;2023-10-19T11:46:13;18.90;97.80
65046;DHT22;54657;52.022;5.534;2023-10-19T11:48:40;19.00;97.80
65046;DHT22;54657;52.022;5.534;2023-10-19T11:51:08;19.10;97.70
65046;DHT22;54657;52.022;5.534;2023-10-19T11:53:37;19.20;97.70
65046;DHT22;54657;52.022;5.534;2023-10-19T11:56:04;19.20;97.50
65046;DHT22;54657;52.022;5.534;2023-10-19T11:58:32;19.20;97.50
65046;DHT22;54657;52.022;5.534;2023-10-19T12:01:03;19.20;97.40
65046;DHT22;54657;52.022;5.534;2023-10-19T12:03:39;19.20;97.50
65046;DHT22;54657;52.022;5.534;2023-10-19T12:06:09;19.30;97.30
65046;DHT22;54657;52.022;5.534;2023-10-19T12:08:36;19.30;97.30
65046;DHT22;54657;52.022;5.534;2023-10-19T12:11:02;19.20;97.40
65046;DHT22;54657;52.022;5.534;2023-10-19T12:13:41;19.10;97.40
65046;DHT22;54657;52.022;5.534;2023-10-19T12:16:09;19.10;97.50
65046;DHT22;54657;52.022;5.534;2023-10-19T12:18:36;19.00;97.60
65046;DHT22;54657;52.022;5.534;2023-10-19T12:21:03;19.00;97.60
65046;DHT22;54657;52.022;5.534;2023-10-19T12:23:33;19.00;97.60
65046;DHT22;54657;52.022;5.534;2023-10-19T12:25:59;18.90;97.60
65046;DHT22;54657;52.022;5.534;2023-10-19T12:28:28;19.00;97.60
65046;DHT22;54657;52.022;5.534;2023-10-19T12:30:54;18.90;97.60
65046;DHT22;54657;52.022;5.534;2023-10-19T12:33:21;18.90;97.60
65046;DHT22;54657;52.022;5.534;2023-10-19T12:35:47;18.90;97.60
65046;DHT22;54657;52.022;5.534;2023-10-19T12:38:22;18.90;97.60
65046;DHT22;54657;52.022;5.534;2023-10-19T12:40:50;18.90;97.50
65046;DHT22;54657;52.022;5.534;2023-10-19T12:43:16;18.80;97.60
65046;DHT22;54657;52.022;5.534;2023-10-19T12:45:48;18.80;97.60
65046;DHT22;54657;52.022;5.534;2023-10-19T12:48:19;18.80;97.60
65046;DHT22;54657;52.022;5.534;2023-10-19T12:50:46;18.70;97.60
65046;DHT22;54657;52.022;5.534;2023-10-19T12:53:12;18.70;97.60
65046;DHT22;54657;52.022;5.534;2023-10-19T12:55:39;18.70;97.60
65046;DHT22;54657;52.022;5.534;2023-10-19T12:58:05;18.70;97.60
65046;DHT22;54657;52.022;5.534;2023-10-19T13:00:35;18.70;97.60
65046;DHT22;54657;52.022;5.534;2023-10-19T13:03:09;18.60;97.60
65046;DHT22;54657;52.022;5.534;2023-10-19T13:05:39;18.60;97.70
65046;DHT22;54657;52.022;5.534;2023-10-19T13:08:10;18.50;97.70
65046;DHT22;54657;52.022;5.534;2023-10-19T13:10:38;18.50;97.70
65046;DHT22;54657;52.022;5.534;2023-10-19T13:13:08;18.50;97.70
65046;DHT22;54657;52.022;5.534;2023-10-19T13:15:37;18.50;97.80
65046;DHT22;54657;52.022;5.534;2023-10-19T13:18:04;18.50;97.90
65046;DHT22;54657;52.022;5.534;2023-10-19T13:20:32;18.40;97.90
65046;DHT22;54657;52.022;5.534;2023-10-19T13:23:04;18.40;98.00
65046;DHT22;54657;52.022;5.534;2023-10-19T13:25:33;18.40;98.20
65046;DHT22;54657;52.022;5.534;2023-10-19T13:28:11;18.30;98.20
65046;DHT22;54657;52.022;5.534;2023-10-19T13:30:49;18.30;98.30
65046;DHT22;54657;52.022;5.534;2023-10-19T13:33:15;18.30;98.30
65046;DHT22;54657;52.022;5.534;2023-10-19T13:35:42;18.20;98.30
65046;DHT22;54657;52.022;5.534;2023-10-19T13:38:08;18.20;98.40
65046;DHT22;54657;52.022;5.534;2023-10-19T13:40:35;18.20;98.40
65046;DHT22;54657;52.022;5.534;2023-10-19T13:43:02;18.20;98.40
65046;DHT22;54657;52.022;5.534;2023-10-19T13:45:31;18.20;98.50
65046;DHT22;54657;52.022;5.534;2023-10-19T13:47:57;18.20;98.50
65046;DHT22;54657;52.022;5.534;2023-10-19T13:50:24;18.20;98.50
65046;DHT22;54657;52.022;5.534;2023-10-19T13:52:59;18.20;98.50
65046;DHT22;54657;52.022;5.534;2023-10-19T13:55:26;18.20;98.40
65046;DHT22;54657;52.022;5.534;2023-10-19T13:57:52;18.30;98.50
65046;DHT22;54657;52.022;5.534;2023-10-19T14:00:19;18.30;98.50
65046;DHT22;54657;52.022;5.534;2023-10-19T14:02:50;18.30;98.40
65046;DHT22;54657;52.022;5.534;2023-10-19T14:05:16;18.30;98.40
65046;DHT22;54657;52.022;5.534;2023-10-19T14:07:47;18.30;98.50
65046;DHT22;54657;52.022;5.534;2023-10-19T14:10:23;18.30;98.50
65046;DHT22;54657;52.022;5.534;2023-10-19T14:12:59;18.30;98.70
65046;DHT22;54657;52.022;5.534;2023-10-19T14:15:25;18.20;98.60
65046;DHT22;54657;52.022;5.534;2023-10-19T14:17:56;18.20;98.70
65046;DHT22;54657;52.022;5.534;2023-10-19T14:20:25;18.20;98.80
65046;DHT22;54657;52.022;5.534;2023-10-19T14:22:51;18.10;98.90
65046;DHT22;54657;52.022;5.534;2023-10-19T14:25:20;18.10;98.90
65046;DHT22;54657;52.022;5.534;2023-10-19T14:27:48;18.10;98.80
65046;DHT22;54657;52.022;5.534;2023-10-19T14:30:22;18.10;98.90
65046;DHT22;54657;52.022;5.534;2023-10-19T14:32:48;18.20;98.90
65046;DHT22;54657;52.022;5.534;2023-10-19T14:35:15;18.10;98.90
65046;DHT22;54657;52.022;5.534;2023-10-19T14:37:43;18.10;98.90
65046;DHT22;54657;52.022;5.534;2023-10-19T14:40:11;18.10;99.00
65046;DHT22;54657;52.022;5.534;2023-10-19T14:42:37;18.00;99.20
65046;DHT22;54657;52.022;5.534;2023-10-19T14:45:06;18.00;99.00
65046;DHT22;54657;52.022;5.534;2023-10-19T14:47:35;18.00;99.10
65046;DHT22;54657;52.022;5.534;2023-10-19T14:50:01;18.00;99.10
65046;DHT22;54657;52.022;5.534;2023-10-19T14:52:27;17.90;99.10
65046;DHT22;54657;52.022;5.534;2023-10-19T14:54:52;17.90;99.20
65046;DHT22;54657;52.022;5.534;2023-10-19T14:57:18;17.90;99.20
65046;DHT22;54657;52.022;5.534;2023-10-19T14:59:43;17.90;99.20
65046;DHT22;54657;52.022;5.534;2023-10-19T15:02:09;17.90;99.30
65046;DHT22;54657;52.022;5.534;2023-10-19T15:04:38;17.80;99.30
65046;DHT22;54657;52.022;5.534;2023-10-19T15:07:04;17.80;99.50
65046;DHT22;54657;52.022;5.534;2023-10-19T15:09:30;17.80;99.40
65046;DHT22;54657;52.022;5.534;2023-10-19T15:11:56;17.70;99.50
65046;DHT22;54657;52.022;5.534;2023-10-19T15:14:22;17.70;99.50
65046;DHT22;54657;52.022;5.534;2023-10-19T15:16:48;17.70;99.60
65046;DHT22;54657;52.022;5.534;2023-10-19T15:19:13;17.70;99.70
65046;DHT22;54657;52.022;5.534;2023-10-19T15:21:44;17.60;99.80
65046;DHT22;54657;52.022;5.534;2023-10-19T15:24:10;17.60;99.80
65046;DHT22;54657;52.022;5.534;2023-10-19T15:26:38;17.60;99.80
65046;DHT22;54657;52.022;5.534;2023-10-19T15:29:03;17.60;99.90
65046;DHT22;54657;52.022;5.534;2023-10-19T15:31:30;17.60;99.90
65046;DHT22;54657;52.022;5.534;2023-10-19T15:33:56;17.50;99.80
65046;DHT22;54657;52.022;5.534;2023-10-19T15:36:21;17.50;99.90
65046;DHT22;54657;52.022;5.534;2023-10-19T15:38:47;17.40;99.90
65046;DHT22;54657;52.022;5.534;2023-10-19T15:41:14;17.50;99.90
65046;DHT22;54657;52.022;5.534;2023-10-19T15:43:41;17.50;99.90
65046;DHT22;54657;52.022;5.534;2023-10-19T15:46:07;17.50;99.90
65046;DHT22;54657;52.022;5.534;2023-10-19T15:48:38;17.50;99.80